createdAt,value
2023-04-28T00:04:17.208Z,6.40
2023-04-28T00:09:44.794Z,6.46
2023-04-28T00:15:10.797Z,6.50
2023-04-28T00:20:34.773Z,6.52
2023-04-28T00:26:04.824Z,6.57
2023-04-28T00:31:30.828Z,6.57
2023-04-28T00:36:55.822Z,6.61
2023-04-28T00:42:22.807Z,6.63
2023-04-28T00:47:47.842Z,6.67
2023-04-28T00:53:13.949Z,6.69
2023-04-28T00:58:43.823Z,6.68
2023-04-28T01:04:08.882Z,6.65
2023-04-28T01:09:33.825Z,6.61
2023-04-28T01:15:02.818Z,6.60
2023-04-28T01:20:27.794Z,6.59
2023-04-28T01:25:54.847Z,6.57
2023-04-28T01:31:20.943Z,6.50
2023-04-28T01:36:44.848Z,6.50
2023-04-28T01:42:19.879Z,6.52
2023-04-28T01:47:44.883Z,6.44
2023-04-28T01:53:10.838Z,6.35
2023-04-28T01:58:38.878Z,6.32
2023-04-28T02:04:04.868Z,6.31
2023-04-28T02:09:29.919Z,6.28
2023-04-28T02:14:57.838Z,6.30
2023-04-28T02:20:22.901Z,6.30
2023-04-28T02:25:46.830Z,6.33
2023-04-28T02:31:24.974Z,6.34
2023-04-28T02:36:49.848Z,6.26
2023-04-28T02:42:13.873Z,6.21
2023-04-28T02:47:42.019Z,6.16
2023-04-28T02:53:07.875Z,6.12
2023-04-28T02:58:33.875Z,6.01
2023-04-28T03:04:00.984Z,5.94
2023-04-28T03:09:25.884Z,5.85
2023-04-28T03:14:49.926Z,5.80
2023-04-28T03:20:19.850Z,5.76
2023-04-28T03:25:44.990Z,5.70
2023-04-28T03:31:09.915Z,5.70
2023-04-28T03:36:36.872Z,5.71
2023-04-28T03:42:09.898Z,5.76
2023-04-28T03:47:57.930Z,5.76
2023-04-28T03:53:25.891Z,5.78
2023-04-28T03:58:50.857Z,5.80
2023-04-28T04:04:16.297Z,5.83
2023-04-28T04:09:57.007Z,5.88
2023-04-28T04:15:21.925Z,5.93
2023-04-28T04:20:48.012Z,5.97
2023-04-28T04:26:15.906Z,6.03
2023-04-28T04:31:42.996Z,6.06
2023-04-28T04:37:07.910Z,6.13
2023-04-28T04:42:40.934Z,6.21
2023-04-28T04:48:08.929Z,6.29
2023-04-28T04:53:34.919Z,6.38
2023-04-28T04:59:14.953Z,6.46
2023-04-28T05:05:01.803Z,6.52
2023-04-28T05:10:33.955Z,6.60
2023-04-28T05:15:59.965Z,6.70
2023-04-28T05:22:02.916Z,6.79
2023-04-28T05:27:29.031Z,6.91
2023-04-28T05:32:53.982Z,7.00
2023-04-28T05:38:23.344Z,7.12
2023-04-28T05:43:49.025Z,7.21
2023-04-28T05:49:13.944Z,7.33
2023-04-28T05:54:41.937Z,7.44
2023-04-28T06:00:13.971Z,7.58
2023-04-28T06:05:40.180Z,7.71
2023-04-28T06:11:08.965Z,7.86
2023-04-28T06:16:34.065Z,8.05
2023-04-28T06:22:00.231Z,8.21
2023-04-28T06:27:27.987Z,8.43
2023-04-28T06:32:53.018Z,8.62
2023-04-28T06:38:17.983Z,8.82
2023-04-28T06:43:44.977Z,9.04
2023-04-28T06:49:15.979Z,9.24
2023-04-28T06:54:40.958Z,9.41
2023-04-28T07:00:09.012Z,9.62
2023-04-28T07:05:32.990Z,9.78
2023-04-28T07:10:58.009Z,9.83
2023-04-28T07:16:26.014Z,9.92
2023-04-28T07:21:52.313Z,9.94
2023-04-28T07:27:16.226Z,10.05
2023-04-28T07:32:44.026Z,10.21
2023-04-28T07:38:10.004Z,10.29
2023-04-28T07:43:35.006Z,10.39
2023-04-28T07:49:03.258Z,10.49
2023-04-28T07:54:28.044Z,10.46
2023-04-28T07:59:58.988Z,10.56
2023-04-28T08:05:33.290Z,10.57
2023-04-28T08:10:57.053Z,10.47
2023-04-28T08:21:48.035Z,10.32
2023-04-28T08:27:14.017Z,10.28
2023-04-28T08:32:38.052Z,10.32
2023-04-28T08:38:06.018Z,10.33
2023-04-28T08:43:31.040Z,10.30
2023-04-28T08:48:57.048Z,10.21
2023-04-28T08:54:27.132Z,10.18
2023-04-28T08:59:52.068Z,10.23
2023-04-28T09:05:17.269Z,10.27
2023-04-28T09:10:45.060Z,10.34
2023-04-28T09:16:16.144Z,10.43
2023-04-28T09:21:41.032Z,10.50
2023-04-28T09:27:09.085Z,10.60
2023-04-28T09:32:35.101Z,10.74
2023-04-28T09:38:00.092Z,10.89
2023-04-28T09:43:37.064Z,10.87
2023-04-28T09:49:01.077Z,10.92
2023-04-28T09:54:28.070Z,10.83
2023-04-28T10:00:05.121Z,10.74
2023-04-28T10:05:33.225Z,10.66
2023-04-28T10:11:01.093Z,10.60
2023-04-28T10:16:29.162Z,10.60
2023-04-28T10:22:03.074Z,10.47
2023-04-28T10:27:29.370Z,10.64
2023-04-28T10:32:57.111Z,10.83
2023-04-28T10:38:24.131Z,11.20
2023-04-28T10:43:57.089Z,11.37
2023-04-28T10:49:26.120Z,11.48
2023-04-28T10:54:51.199Z,11.43
2023-04-28T11:00:37.154Z,11.38
2023-04-28T11:06:37.102Z,11.39
2023-04-28T11:12:18.105Z,11.37
2023-04-28T11:17:56.177Z,11.29
2023-04-28T11:23:24.097Z,11.27
2023-04-28T11:28:50.088Z,11.30
2023-04-28T11:34:19.097Z,11.29
2023-04-28T11:39:48.152Z,11.33
2023-04-28T11:45:14.122Z,11.30
2023-04-28T11:50:53.208Z,11.34
2023-04-28T11:56:21.168Z,11.39
2023-04-28T12:01:47.159Z,11.42
2023-04-28T12:07:15.139Z,11.52
2023-04-28T12:12:51.686Z,11.54
2023-04-28T12:18:20.179Z,11.58
2023-04-28T12:23:50.159Z,11.68
2023-04-28T12:29:18.169Z,11.80
2023-04-28T12:34:43.212Z,12.03
2023-04-28T12:40:09.172Z,12.31
2023-04-28T12:45:38.782Z,12.50
2023-04-28T12:51:04.150Z,12.67
2023-04-28T12:56:28.187Z,12.86
2023-04-28T13:01:56.242Z,13.08
2023-04-28T13:07:20.181Z,13.26
2023-04-28T13:12:45.163Z,13.43
2023-04-28T13:18:13.258Z,13.47
2023-04-28T13:23:38.194Z,13.64
2023-04-28T13:29:04.350Z,13.97
2023-04-28T13:34:32.236Z,14.08
2023-04-28T13:39:56.249Z,14.18
2023-04-28T13:45:22.875Z,14.37
2023-04-28T13:50:50.210Z,14.44
2023-04-28T13:56:16.184Z,14.31
2023-04-28T14:01:47.310Z,14.28
2023-04-28T14:07:16.236Z,14.20
2023-04-28T14:12:40.229Z,14.18
2023-04-28T14:18:05.328Z,14.04
2023-04-28T14:23:33.209Z,14.00
2023-04-28T14:28:58.262Z,13.96
2023-04-28T14:34:25.296Z,13.90
2023-04-28T14:39:53.236Z,13.87
2023-04-28T14:45:18.256Z,13.89
2023-04-28T14:50:43.229Z,13.85
2023-04-28T14:56:18.567Z,13.84
2023-04-28T15:01:51.265Z,13.78
2023-04-28T15:07:17.417Z,13.76
2023-04-28T15:12:44.306Z,13.77
2023-04-28T15:18:11.426Z,13.83
2023-04-28T15:23:38.270Z,13.82
2023-04-28T15:29:06.246Z,13.82
2023-04-28T15:34:31.270Z,13.82
2023-04-28T15:39:56.288Z,13.80
2023-04-28T15:45:28.325Z,13.83
2023-04-28T15:50:54.299Z,13.87
2023-04-28T15:56:20.356Z,13.90
2023-04-28T16:01:54.297Z,13.90
2023-04-28T16:07:20.298Z,13.81
2023-04-28T16:12:45.318Z,13.75
2023-04-28T16:18:13.330Z,13.73
2023-04-28T16:23:40.325Z,13.74
2023-04-28T16:29:05.337Z,13.77
2023-04-28T16:34:32.281Z,13.78
2023-04-28T16:39:57.286Z,13.73
2023-04-28T16:45:24.331Z,13.68
2023-04-28T16:50:52.365Z,13.63
2023-04-28T16:56:17.317Z,13.53
2023-04-28T17:01:49.436Z,13.45
2023-04-28T17:07:17.316Z,13.44
2023-04-28T17:12:41.401Z,13.40
2023-04-28T17:18:06.351Z,13.38
2023-04-28T17:23:34.480Z,13.40
2023-04-28T17:28:59.355Z,13.38
2023-04-28T17:34:24.343Z,13.39
2023-04-28T17:39:52.537Z,13.41
2023-04-28T17:45:16.389Z,13.41
2023-04-28T17:50:43.349Z,13.43
2023-04-28T17:56:10.373Z,13.36
2023-04-28T18:01:41.381Z,13.30
2023-04-28T18:07:06.444Z,13.29
2023-04-28T18:12:33.372Z,13.23
2023-04-28T18:23:23.443Z,13.17
2023-04-28T18:28:57.345Z,13.17
2023-04-28T18:34:24.348Z,13.16
2023-04-28T18:39:49.372Z,13.13
2023-04-28T18:45:14.403Z,13.09
2023-04-28T18:50:43.356Z,13.03
2023-04-28T18:56:09.364Z,13.01
2023-04-28T19:01:40.486Z,12.95
2023-04-28T19:07:12.417Z,12.91
2023-04-28T19:12:36.377Z,12.90
2023-04-28T19:18:02.557Z,12.86
2023-04-28T19:23:30.410Z,12.78
2023-04-28T19:28:55.622Z,12.69
2023-04-28T19:34:19.416Z,12.56
2023-04-28T19:39:47.613Z,12.45
2023-04-28T19:45:14.421Z,12.33
2023-04-28T19:50:40.436Z,12.25
2023-04-28T19:56:08.443Z,12.14
2023-04-28T20:01:40.464Z,11.99
2023-04-28T20:07:05.476Z,11.92
2023-04-28T20:12:33.423Z,11.78
2023-04-28T20:17:58.445Z,11.73
2023-04-28T20:23:22.475Z,11.66
2023-04-28T20:28:51.462Z,11.54
2023-04-28T20:34:15.411Z,11.46
2023-04-28T20:39:40.581Z,11.38
2023-04-28T20:45:07.455Z,11.32
2023-04-28T20:50:32.467Z,11.40
2023-04-28T20:55:56.432Z,11.43
2023-04-28T21:01:24.542Z,11.45
2023-04-28T21:06:48.657Z,11.44
2023-04-28T21:12:14.484Z,11.41
2023-04-28T21:17:42.463Z,11.37
2023-04-28T21:23:07.513Z,11.32
2023-04-28T21:28:31.511Z,11.27
2023-04-28T21:34:00.476Z,11.24
2023-04-28T21:39:28.642Z,11.26
2023-04-28T21:44:59.493Z,11.29
2023-04-28T21:50:30.578Z,11.33
2023-04-28T21:55:55.458Z,11.29
2023-04-28T22:01:23.506Z,11.28
2023-04-28T22:06:51.518Z,11.25
2023-04-28T22:12:15.532Z,11.28
2023-04-28T22:17:40.937Z,11.31
2023-04-28T22:23:09.087Z,11.33
2023-04-28T22:28:33.515Z,11.34
2023-04-28T22:33:58.606Z,11.37
2023-04-28T22:39:26.505Z,11.37
2023-04-28T22:44:55.465Z,11.34
2023-04-28T22:50:21.485Z,11.29
2023-04-28T22:55:49.511Z,11.27
2023-04-28T23:01:23.565Z,11.29
2023-04-28T23:06:54.505Z,11.30
2023-04-28T23:12:25.397Z,11.32
2023-04-28T23:17:54.568Z,11.28
2023-04-28T23:23:18.506Z,11.27
2023-04-28T23:28:49.518Z,11.19
2023-04-28T23:34:13.542Z,11.12
2023-04-28T23:39:39.533Z,11.06
2023-04-28T23:45:08.577Z,10.99
2023-04-28T23:50:39.522Z,10.94
2023-04-28T23:56:05.530Z,10.89
